Woodstock, Virginia
Current Conditions -  °F | °C
As of 3:35 AM on Monday 22 Dec 2014 (Local Time) from KFRR Reporting Station
Overcast Overcast  
Wind Chill: 28°   Ceiling: 4000
Heat Index: 28°   Visibility: 7mi
Dew Point: 23°   Wind: 3mph
Humidity: 80%   Direction: 350°N
Pressure: 30.24"   Gusts: NA
Location:  38.88°N, 78.51°W
Report Text: KFRR 220835Z AUTO 35003KT 7SM OVC040 M02/M05 A3024 RMK AO1
Loading
Personal Weather Stations






























Interactive Weather Map New forecast layout! Learn more

10-Day Weather Forecast

Advertisements
Track Severe Weather on mobile